Time;durP1;ratioP1;P1;durP2;ratioP2;P2;SDS_P1;SDS_P2;PMS_P1;PMS_P2;Temp;Humidity;BMP_temperature;BMP_pressure;BME280_temperature;BME280_humidity;BME280_pressure;Samples;Min_cycle;Max_cycle;Signal;HPM_P1;HPM_P2
2024/04/14 00:01:59;;;;;;;2.88;1.67;;;;;;;;;;5383810;26;20438;-58
2024/04/14 00:04:25;;;;;;;2.28;1.52;;;;;;;;;;5383695;26;20004;-58
2024/04/14 00:06:51;;;;;;;2.60;1.55;;;;;;;;;;5383754;26;20314;-58
2024/04/14 00:09:17;;;;;;;2.70;1.55;;;;;;;;;;5383735;26;20014;-56
2024/04/14 00:11:43;;;;;;;2.75;1.88;;;;;;;;;;5383514;26;20015;-57
2024/04/14 00:14:08;;;;;;;2.95;1.50;;;;;;;;;;5383550;26;20441;-56
2024/04/14 00:16:34;;;;;;;3.53;1.67;;;;;;;;;;5383656;26;20000;-58
2024/04/14 00:19:00;;;;;;;2.55;1.67;;;;;;;;;;5383488;26;19996;-57
2024/04/14 00:21:26;;;;;;;2.15;1.30;;;;;;;;;;5383478;26;19996;-57
2024/04/14 00:23:52;;;;;;;2.55;1.38;;;;;;;;;;5383295;26;20039;-57
2024/04/14 00:26:18;;;;;;;1.90;1.20;;;;;;;;;;5383571;26;20062;-57
2024/04/14 00:28:44;;;;;;;3.45;1.40;;;;;;;;;;5383536;26;19992;-57
2024/04/14 00:31:10;;;;;;;1.95;1.33;;;;;;;;;;5383357;26;19995;-57
2024/04/14 00:33:36;;;;;;;2.15;1.40;;;;;;;;;;5383263;26;19988;-57
2024/04/14 00:36:03;;;;;;;2.05;1.30;;;;;;;;;;5383438;26;20441;-57
2024/04/14 00:38:29;;;;;;;2.53;1.58;;;;;;;;;;5382511;26;20070;-57
2024/04/14 00:40:55;;;;;;;2.60;1.88;;;;;;;;;;5383150;26;19992;-57
2024/04/14 00:43:21;;;;;;;2.20;1.42;;;;;;;;;;5383712;26;19995;-57
2024/04/14 00:45:47;;;;;;;3.28;1.77;;;;;;;;;;5383193;26;19993;-57
2024/04/14 00:48:15;;;;;;;2.25;1.20;;;;;;;;;;5383055;26;20003;-57
2024/04/14 00:50:42;;;;;;;3.55;1.73;;;;;;;;;;5383398;26;20015;-57
2024/04/14 00:53:09;;;;;;;2.03;1.35;;;;;;;;;;5382950;26;20032;-57
2024/04/14 00:55:35;;;;;;;2.58;1.50;;;;;;;;;;5383123;26;20006;-57
2024/04/14 00:58:02;;;;;;;2.42;1.40;;;;;;;;;;5382797;26;20083;-57
2024/04/14 01:00:29;;;;;;;2.35;1.38;;;;;;;;;;5382889;26;20000;-58
2024/04/14 01:02:55;;;;;;;2.97;1.55;;;;;;;;;;5382895;26;20006;-57
2024/04/14 01:05:24;;;;;;;2.67;1.70;;;;;;;;;;5382805;26;19997;-57
2024/04/14 01:07:51;;;;;;;3.35;1.90;;;;;;;;;;5382733;26;20042;-57
2024/04/14 01:10:17;;;;;;;2.13;1.40;;;;;;;;;;5383299;26;19996;-57
2024/04/14 01:12:43;;;;;;;3.25;1.65;;;;;;;;;;5383097;26;20308;-58
2024/04/14 01:15:09;;;;;;;4.50;1.48;;;;;;;;;;5383014;26;20024;-57
2024/04/14 01:17:35;;;;;;;2.78;2.05;;;;;;;;;;5383222;26;19992;-57
2024/04/14 01:20:01;;;;;;;4.22;2.53;;;;;;;;;;5383510;26;20007;-57
2024/04/14 01:22:27;;;;;;;3.35;2.00;;;;;;;;;;5382902;26;20007;-57
2024/04/14 01:25:02;;;;;;;2.92;1.77;;;;;;;;;;5382933;26;20327;-57
2024/04/14 01:27:28;;;;;;;3.22;1.90;;;;;;;;;;5382554;26;20000;-57
2024/04/14 01:29:54;;;;;;;3.75;1.85;;;;;;;;;;5382857;26;19996;-57
2024/04/14 01:32:20;;;;;;;2.97;2.05;;;;;;;;;;5382462;26;20311;-57
2024/04/14 01:34:46;;;;;;;2.95;1.70;;;;;;;;;;5382702;26;19992;-57
2024/04/14 01:37:12;;;;;;;4.18;1.95;;;;;;;;;;5382384;26;20007;-57
2024/04/14 01:39:37;;;;;;;2.35;1.83;;;;;;;;;;5382651;26;20433;-57
2024/04/14 01:42:04;;;;;;;3.53;1.95;;;;;;;;;;5382253;26;20011;-57
2024/04/14 01:44:29;;;;;;;2.35;1.70;;;;;;;;;;5382241;26;20399;-57
2024/04/14 01:46:55;;;;;;;2.85;1.85;;;;;;;;;;5382463;26;20003;-57
2024/04/14 01:49:21;;;;;;;3.40;1.77;;;;;;;;;;5383812;26;20008;-57
2024/04/14 01:51:47;;;;;;;3.22;1.83;;;;;;;;;;5385491;26;20007;-57
2024/04/14 01:54:13;;;;;;;3.42;2.00;;;;;;;;;;5385602;26;19992;-57
2024/04/14 01:56:39;;;;;;;2.47;1.60;;;;;;;;;;5385766;26;19997;-57
2024/04/14 01:59:05;;;;;;;3.33;2.20;;;;;;;;;;5385907;26;19996;-57
2024/04/14 02:01:31;;;;;;;3.28;2.33;;;;;;;;;;5385403;26;20322;-57
2024/04/14 02:03:57;;;;;;;3.00;1.98;;;;;;;;;;5385274;26;20000;-57
2024/04/14 02:06:23;;;;;;;2.40;1.88;;;;;;;;;;5385241;26;19996;-57
2024/04/14 02:08:52;;;;;;;3.05;2.03;;;;;;;;;;5385567;26;20056;-57
2024/04/14 02:11:18;;;;;;;2.72;1.85;;;;;;;;;;5385543;26;19996;-56
2024/04/14 02:13:44;;;;;;;3.22;2.17;;;;;;;;;;5385259;26;19996;-57
2024/04/14 02:16:10;;;;;;;2.97;2.30;;;;;;;;;;5385109;26;19996;-57
2024/04/14 02:18:36;;;;;;;3.13;2.40;;;;;;;;;;5385600;26;20042;-57
2024/04/14 02:21:02;;;;;;;2.70;2.03;;;;;;;;;;5385368;26;20000;-58
2024/04/14 02:23:29;;;;;;;3.53;2.40;;;;;;;;;;5384997;26;20076;-57
2024/04/14 02:25:56;;;;;;;3.92;2.65;;;;;;;;;;5384957;26;20008;-57
2024/04/14 02:28:22;;;;;;;3.42;2.08;;;;;;;;;;5384984;26;20000;-57
2024/04/14 02:30:49;;;;;;;3.05;2.08;;;;;;;;;;5385041;26;20000;-57
2024/04/14 02:33:15;;;;;;;3.00;1.95;;;;;;;;;;5384876;26;20445;-57
2024/04/14 02:35:41;;;;;;;4.03;2.25;;;;;;;;;;5385040;26;19996;-57
2024/04/14 02:38:07;;;;;;;2.55;2.03;;;;;;;;;;5384872;26;20442;-57
2024/04/14 02:40:33;;;;;;;3.28;2.10;;;;;;;;;;5384810;26;20000;-57
2024/04/14 02:42:59;;;;;;;2.65;1.92;;;;;;;;;;5384733;26;20070;-57
2024/04/14 02:45:25;;;;;;;3.95;2.13;;;;;;;;;;5384633;26;20485;-57
2024/04/14 02:47:51;;;;;;;2.60;1.80;;;;;;;;;;5384655;26;20039;-57
2024/04/14 02:50:17;;;;;;;3.58;2.25;;;;;;;;;;5385327;26;20073;-58
2024/04/14 02:52:43;;;;;;;2.60;1.95;;;;;;;;;;5384543;26;20029;-58
2024/04/14 02:55:09;;;;;;;3.00;1.77;;;;;;;;;;5384517;26;19996;-58
2024/04/14 02:57:35;;;;;;;2.65;1.83;;;;;;;;;;5384804;26;20000;-57
2024/04/14 03:00:01;;;;;;;2.90;2.40;;;;;;;;;;5384532;26;20007;-58
2024/04/14 03:02:27;;;;;;;2.30;1.77;;;;;;;;;;5384681;26;20004;-58
2024/04/14 03:04:53;;;;;;;2.97;1.90;;;;;;;;;;5384401;26;20007;-57
2024/04/14 03:07:19;;;;;;;2.45;1.73;;;;;;;;;;5384583;26;20329;-58
2024/04/14 03:09:44;;;;;;;3.17;1.63;;;;;;;;;;5384854;26;19996;-57
2024/04/14 03:12:10;;;;;;;3.45;1.77;;;;;;;;;;5385024;26;20061;-57
2024/04/14 03:14:36;;;;;;;3.05;1.88;;;;;;;;;;5384847;26;20007;-57
2024/04/14 03:17:02;;;;;;;6.40;1.73;;;;;;;;;;5384644;26;19996;-57
2024/04/14 03:19:28;;;;;;;3.85;1.80;;;;;;;;;;5384851;26;20000;-58
2024/04/14 03:21:54;;;;;;;3.30;1.73;;;;;;;;;;5384581;26;20000;-57
2024/04/14 03:24:20;;;;;;;1.95;1.38;;;;;;;;;;5385002;26;20003;-58
2024/04/14 03:26:46;;;;;;;2.65;1.50;;;;;;;;;;5384457;26;20394;-57
2024/04/14 03:29:12;;;;;;;5.38;1.50;;;;;;;;;;5384532;26;20000;-58
2024/04/14 03:31:38;;;;;;;4.55;1.38;;;;;;;;;;5384510;26;20328;-57
2024/04/14 03:34:04;;;;;;;2.45;1.45;;;;;;;;;;5384490;26;19997;-57
2024/04/14 03:36:30;;;;;;;2.80;1.20;;;;;;;;;;5384088;26;20032;-57
2024/04/14 03:38:55;;;;;;;2.28;1.35;;;;;;;;;;5384481;26;20005;-58
2024/04/14 03:41:24;;;;;;;2.20;1.20;;;;;;;;;;5384025;26;20009;-57
2024/04/14 03:43:50;;;;;;;2.53;1.50;;;;;;;;;;5383866;26;20064;-57
2024/04/14 03:46:16;;;;;;;2.42;1.40;;;;;;;;;;5383745;26;19992;-57
2024/04/14 03:48:42;;;;;;;3.30;1.50;;;;;;;;;;5384583;26;19996;-57
2024/04/14 03:51:08;;;;;;;2.72;1.83;;;;;;;;;;5383832;26;20438;-57
2024/04/14 03:53:34;;;;;;;3.03;1.67;;;;;;;;;;5384094;26;19996;-57
2024/04/14 03:56:00;;;;;;;1.90;1.38;;;;;;;;;;5384021;26;20003;-57
2024/04/14 03:58:26;;;;;;;2.35;1.42;;;;;;;;;;5383656;26;20041;-58
2024/04/14 04:00:52;;;;;;;2.60;1.77;;;;;;;;;;5383948;26;20065;-57
2024/04/14 04:03:18;;;;;;;1.90;1.27;;;;;;;;;;5383725;26;20007;-58
2024/04/14 04:05:52;;;;;;;3.72;1.38;;;;;;;;;;5383723;26;20004;-57
2024/04/14 04:08:18;;;;;;;2.13;1.40;;;;;;;;;;5384041;26;20066;-57
2024/04/14 04:10:44;;;;;;;2.22;1.27;;;;;;;;;;5383861;26;20007;-57
2024/04/14 04:13:10;;;;;;;2.22;1.27;;;;;;;;;;5383695;26;20003;-57
2024/04/14 04:15:36;;;;;;;2.53;1.23;;;;;;;;;;5383876;26;20445;-57
2024/04/14 04:18:02;;;;;;;2.17;1.30;;;;;;;;;;5383933;26;20004;-58
2024/04/14 04:20:28;;;;;;;1.85;0.93;;;;;;;;;;5384047;26;20138;-58
2024/04/14 04:22:54;;;;;;;2.08;1.30;;;;;;;;;;5383683;26;20006;-56
2024/04/14 04:25:20;;;;;;;4.68;1.58;;;;;;;;;;5383361;26;20008;-57
2024/04/14 04:27:46;;;;;;;2.85;1.35;;;;;;;;;;5383618;26;20008;-58
2024/04/14 04:30:11;;;;;;;2.78;1.60;;;;;;;;;;5383315;26;20027;-57
2024/04/14 04:32:37;;;;;;;3.67;1.75;;;;;;;;;;5383267;26;20015;-57
2024/04/14 04:35:03;;;;;;;2.35;1.50;;;;;;;;;;5383219;26;20450;-58
2024/04/14 04:37:29;;;;;;;2.25;1.45;;;;;;;;;;5383222;26;19997;-57
2024/04/14 04:39:55;;;;;;;1.95;1.25;;;;;;;;;;5383266;26;19996;-57
2024/04/14 04:42:21;;;;;;;2.22;1.45;;;;;;;;;;5383173;26;20000;-57
2024/04/14 04:44:47;;;;;;;2.17;1.08;;;;;;;;;;5383314;26;19996;-57
2024/04/14 04:47:13;;;;;;;1.85;1.17;;;;;;;;;;5383080;26;20000;-57
2024/04/14 04:49:39;;;;;;;1.70;1.00;;;;;;;;;;5383206;26;20325;-58
2024/04/14 04:52:05;;;;;;;2.20;1.33;;;;;;;;;;5383273;26;19996;-57
2024/04/14 04:54:31;;;;;;;2.13;0.98;;;;;;;;;;5383050;26;20004;-57
2024/04/14 04:56:57;;;;;;;2.28;1.30;;;;;;;;;;5382876;26;20061;-57
2024/04/14 04:59:23;;;;;;;2.00;1.15;;;;;;;;;;5383290;26;20007;-57
2024/04/14 05:01:49;;;;;;;2.05;1.05;;;;;;;;;;5383302;26;20519;-57
2024/04/14 05:04:15;;;;;;;1.58;0.90;;;;;;;;;;5383318;26;19996;-58
2024/04/14 05:06:41;;;;;;;2.40;1.35;;;;;;;;;;5382891;26;20069;-57
2024/04/14 05:09:06;;;;;;;3.55;1.52;;;;;;;;;;5383288;26;20000;-58
2024/04/14 05:11:32;;;;;;;2.80;1.25;;;;;;;;;;5383262;26;20000;-57
2024/04/14 05:13:58;;;;;;;1.98;1.30;;;;;;;;;;5383329;26;20445;-58
2024/04/14 05:16:25;;;;;;;2.72;1.17;;;;;;;;;;5383397;26;20007;-57
2024/04/14 05:18:51;;;;;;;3.40;1.30;;;;;;;;;;5383212;26;20410;-58
2024/04/14 05:21:17;;;;;;;2.38;1.25;;;;;;;;;;5383160;26;20000;-58
2024/04/14 05:23:43;;;;;;;1.35;0.63;;;;;;;;;;5382843;26;20003;-57
2024/04/14 05:26:09;;;;;;;2.70;1.52;;;;;;;;;;5382857;26;20008;-58
2024/04/14 05:28:35;;;;;;;3.53;1.30;;;;;;;;;;5383007;26;20015;-57
2024/04/14 05:31:01;;;;;;;2.38;1.05;;;;;;;;;;5382898;26;20007;-58
2024/04/14 05:33:27;;;;;;;2.70;1.30;;;;;;;;;;5383703;26;19992;-58
2024/04/14 05:35:56;;;;;;;2.08;1.27;;;;;;;;;;5383069;26;19992;-57
2024/04/14 05:38:22;;;;;;;3.70;1.60;;;;;;;;;;5383105;26;20061;-57
2024/04/14 05:40:48;;;;;;;3.63;1.35;;;;;;;;;;5382989;26;20007;-58
2024/04/14 05:43:14;;;;;;;2.60;1.55;;;;;;;;;;5383134;26;20322;-58
2024/04/14 05:45:40;;;;;;;2.58;1.48;;;;;;;;;;5383290;26;20069;-58
2024/04/14 05:48:06;;;;;;;3.67;1.80;;;;;;;;;;5382677;26;20000;-58
2024/04/14 05:50:32;;;;;;;3.50;1.40;;;;;;;;;;5382723;26;19996;-58
2024/04/14 05:52:58;;;;;;;2.45;1.33;;;;;;;;;;5382490;26;20087;-57
2024/04/14 05:55:24;;;;;;;2.50;1.40;;;;;;;;;;5382512;26;19993;-58
2024/04/14 05:57:50;;;;;;;1.63;1.10;;;;;;;;;;5382415;26;19992;-57
2024/04/14 06:00:16;;;;;;;1.83;1.08;;;;;;;;;;5382901;26;20411;-58
2024/04/14 06:02:42;;;;;;;3.88;1.52;;;;;;;;;;5383256;26;20298;-58
2024/04/14 06:05:08;;;;;;;2.60;1.33;;;;;;;;;;5382268;26;20004;-58
2024/04/14 06:07:34;;;;;;;3.55;1.38;;;;;;;;;;5381982;26;20062;-58
2024/04/14 06:10:00;;;;;;;2.67;1.63;;;;;;;;;;5381823;26;20351;-58
2024/04/14 06:12:26;;;;;;;2.50;1.27;;;;;;;;;;5382046;26;20451;-57
2024/04/14 06:14:52;;;;;;;2.97;1.35;;;;;;;;;;5381831;26;19996;-58
2024/04/14 06:17:18;;;;;;;2.22;1.45;;;;;;;;;;5381760;26;20020;-58
2024/04/14 06:19:43;;;;;;;2.08;1.20;;;;;;;;;;5382027;26;19999;-58
2024/04/14 06:22:09;;;;;;;2.35;1.40;;;;;;;;;;5382249;26;19996;-58
2024/04/14 06:24:35;;;;;;;2.28;1.30;;;;;;;;;;5381944;26;20307;-58
2024/04/14 06:27:01;;;;;;;2.28;1.30;;;;;;;;;;5381523;26;20330;-57
2024/04/14 06:29:28;;;;;;;2.30;1.40;;;;;;;;;;5382029;26;20306;-58
2024/04/14 06:31:53;;;;;;;2.55;1.38;;;;;;;;;;5381183;26;19996;-58
2024/04/14 06:34:19;;;;;;;2.60;1.20;;;;;;;;;;5381238;26;20000;-58
2024/04/14 06:36:45;;;;;;;5.85;1.52;;;;;;;;;;5384772;26;19996;-58
2024/04/14 06:39:11;;;;;;;2.85;1.33;;;;;;;;;;5384824;26;20369;-58
2024/04/14 06:41:37;;;;;;;1.63;0.93;;;;;;;;;;5385116;26;20430;-58
2024/04/14 06:44:03;;;;;;;3.20;1.75;;;;;;;;;;5385033;26;20004;-58
2024/04/14 06:46:29;;;;;;;2.25;1.35;;;;;;;;;;5384782;26;20070;-58
2024/04/14 06:48:55;;;;;;;3.75;1.50;;;;;;;;;;5385107;26;20011;-58
2024/04/14 06:51:21;;;;;;;2.92;1.50;;;;;;;;;;5384845;26;20004;-58
2024/04/14 06:53:47;;;;;;;2.47;1.30;;;;;;;;;;5385079;26;20342;-58
2024/04/14 06:56:13;;;;;;;2.13;1.20;;;;;;;;;;5385189;26;20010;-57
2024/04/14 06:58:42;;;;;;;2.40;1.20;;;;;;;;;;5384574;26;20005;-58
2024/04/14 07:01:08;;;;;;;3.10;1.45;;;;;;;;;;5384570;26;20475;-58
2024/04/14 07:03:34;;;;;;;2.22;1.20;;;;;;;;;;5384718;26;19996;-58
2024/04/14 07:06:00;;;;;;;2.35;1.05;;;;;;;;;;5384361;26;20007;-58
2024/04/14 07:08:26;;;;;;;1.92;1.10;;;;;;;;;;5385279;26;20428;-58
2024/04/14 07:10:52;;;;;;;4.53;1.30;;;;;;;;;;5385041;26;20000;-58
2024/04/14 07:13:18;;;;;;;2.85;1.30;;;;;;;;;;5385013;26;19996;-58
2024/04/14 07:15:44;;;;;;;2.08;1.15;;;;;;;;;;5384838;26;19996;-58
2024/04/14 07:18:10;;;;;;;2.63;1.40;;;;;;;;;;5384580;26;19999;-57
2024/04/14 07:20:36;;;;;;;1.98;1.38;;;;;;;;;;5384691;26;20004;-58
2024/04/14 07:23:02;;;;;;;3.13;1.52;;;;;;;;;;5384648;26;20046;-58
2024/04/14 07:25:28;;;;;;;3.42;1.10;;;;;;;;;;5384803;26;20016;-58
2024/04/14 07:27:54;;;;;;;2.03;1.05;;;;;;;;;;5384531;26;20000;-58
2024/04/14 07:30:20;;;;;;;2.35;1.23;;;;;;;;;;5384446;26;19992;-58
2024/04/14 07:32:46;;;;;;;1.60;0.90;;;;;;;;;;5384178;26;20047;-58
2024/04/14 07:35:12;;;;;;;2.03;1.15;;;;;;;;;;5383894;26;20012;-58
2024/04/14 07:37:38;;;;;;;2.55;1.48;;;;;;;;;;5384084;26;20006;-59
2024/04/14 07:40:04;;;;;;;1.73;0.90;;;;;;;;;;5384601;26;19996;-57
2024/04/14 07:42:30;;;;;;;1.98;1.30;;;;;;;;;;5384296;26;20314;-58
2024/04/14 07:44:56;;;;;;;2.50;1.25;;;;;;;;;;5383846;26;20000;-58
2024/04/14 07:47:22;;;;;;;2.75;1.30;;;;;;;;;;5382389;26;20015;-59
2024/04/14 07:49:48;;;;;;;2.70;1.70;;;;;;;;;;5384805;26;20003;-59
2024/04/14 07:52:14;;;;;;;2.08;1.10;;;;;;;;;;5384116;26;19996;-59
2024/04/14 07:54:40;;;;;;;2.20;1.20;;;;;;;;;;5384002;26;19992;-59
2024/04/14 07:57:07;;;;;;;1.95;0.88;;;;;;;;;;5384082;26;19996;-59
2024/04/14 07:59:33;;;;;;;5.47;1.35;;;;;;;;;;5383749;26;20000;-58
2024/04/14 08:01:59;;;;;;;2.35;1.30;;;;;;;;;;5383695;26;19996;-58
2024/04/14 08:04:25;;;;;;;2.78;1.60;;;;;;;;;;5384222;26;20326;-57
2024/04/14 08:06:50;;;;;;;1.95;1.15;;;;;;;;;;5384079;26;19996;-56
2024/04/14 08:09:17;;;;;;;2.47;1.25;;;;;;;;;;5383359;26;20452;-57
2024/04/14 08:11:43;;;;;;;1.88;1.20;;;;;;;;;;5383794;26;20003;-58
2024/04/14 08:14:10;;;;;;;3.25;1.45;;;;;;;;;;5383915;26;19996;-58
2024/04/14 08:16:36;;;;;;;2.03;1.13;;;;;;;;;;5383397;26;20000;-57
2024/04/14 08:19:02;;;;;;;4.82;1.33;;;;;;;;;;5383594;26;20004;-57
2024/04/14 08:21:28;;;;;;;1.70;1.05;;;;;;;;;;5383430;26;19992;-57
2024/04/14 08:23:54;;;;;;;1.52;0.93;;;;;;;;;;5383378;26;20446;-57
2024/04/14 08:26:20;;;;;;;3.20;1.35;;;;;;;;;;5383129;26;19992;-57
2024/04/14 08:28:46;;;;;;;2.72;1.55;;;;;;;;;;5384253;26;20007;-58
2024/04/14 08:31:12;;;;;;;3.58;1.70;;;;;;;;;;5383586;26;20000;-58
2024/04/14 08:33:38;;;;;;;2.55;1.13;;;;;;;;;;5382794;26;20000;-58
2024/04/14 08:36:04;;;;;;;2.63;1.35;;;;;;;;;;5383142;26;20453;-58
2024/04/14 08:38:30;;;;;;;2.05;1.08;;;;;;;;;;5383207;26;20011;-58
2024/04/14 08:40:57;;;;;;;2.22;1.30;;;;;;;;;;5383080;26;20426;-58
2024/04/14 08:43:23;;;;;;;2.45;1.10;;;;;;;;;;5383048;26;20003;-58
2024/04/14 08:45:50;;;;;;;2.35;1.08;;;;;;;;;;5383114;26;20512;-58
2024/04/14 08:48:18;;;;;;;2.90;1.25;;;;;;;;;;5383087;26;20042;-59
2024/04/14 08:50:44;;;;;;;3.83;1.55;;;;;;;;;;5382803;26;19996;-58
2024/04/14 08:53:13;;;;;;;2.78;1.20;;;;;;;;;;5383017;26;19996;-58
2024/04/14 08:55:39;;;;;;;6.25;1.40;;;;;;;;;;5382985;26;20428;-58
2024/04/14 08:58:05;;;;;;;3.25;1.67;;;;;;;;;;5382630;26;20225;-58
2024/04/14 09:00:31;;;;;;;2.20;1.30;;;;;;;;;;5383092;26;20000;-58
2024/04/14 09:02:58;;;;;;;2.47;1.08;;;;;;;;;;5383577;26;20330;-58
2024/04/14 09:05:24;;;;;;;2.58;1.55;;;;;;;;;;5383132;26;20449;-58
2024/04/14 09:07:56;;;;;;;2.70;1.70;;;;;;;;;;5383259;26;20449;-58
2024/04/14 09:10:22;;;;;;;2.42;1.60;;;;;;;;;;5383353;26;19992;-58
2024/04/14 09:12:48;;;;;;;2.78;1.55;;;;;;;;;;5383509;26;20326;-58
2024/04/14 09:15:14;;;;;;;2.05;1.27;;;;;;;;;;5383210;26;20001;-59
2024/04/14 09:17:40;;;;;;;2.35;1.15;;;;;;;;;;5383105;26;20008;-59
2024/04/14 09:20:07;;;;;;;4.03;1.40;;;;;;;;;;5383623;26;19996;-59
2024/04/14 09:22:33;;;;;;;2.67;1.45;;;;;;;;;;5382606;26;20461;-58
2024/04/14 09:24:59;;;;;;;1.95;1.23;;;;;;;;;;5382932;26;19996;-58
2024/04/14 09:27:25;;;;;;;2.70;1.60;;;;;;;;;;5382862;26;20326;-59
2024/04/14 09:29:53;;;;;;;2.13;1.38;;;;;;;;;;5382667;26;20006;-58
2024/04/14 09:32:19;;;;;;;1.92;1.13;;;;;;;;;;5382500;26;20000;-58
2024/04/14 09:34:45;;;;;;;2.72;1.85;;;;;;;;;;5382913;26;20007;-59
2024/04/14 09:37:15;;;;;;;4.47;1.52;;;;;;;;;;5382510;26;20011;-58
2024/04/14 09:39:42;;;;;;;2.42;1.55;;;;;;;;;;5382577;26;20011;-58
2024/04/14 09:42:08;;;;;;;3.03;1.83;;;;;;;;;;5382133;26;19996;-58
2024/04/14 09:44:34;;;;;;;3.33;1.80;;;;;;;;;;5382448;26;19992;-59
2024/04/14 09:47:01;;;;;;;2.33;1.67;;;;;;;;;;5382223;26;19992;-59
2024/04/14 09:49:29;;;;;;;3.97;1.65;;;;;;;;;;5382815;26;20007;-59
2024/04/14 09:51:56;;;;;;;2.28;1.27;;;;;;;;;;5382399;26;20000;-59
2024/04/14 09:54:23;;;;;;;3.42;1.75;;;;;;;;;;5382145;26;20000;-59
2024/04/14 09:56:49;;;;;;;6.22;2.03;;;;;;;;;;5382032;26;19996;-58
2024/04/14 09:59:15;;;;;;;2.42;1.75;;;;;;;;;;5382081;26;20384;-59
2024/04/14 10:01:44;;;;;;;4.32;2.50;;;;;;;;;;5381969;26;20000;-58
2024/04/14 10:04:10;;;;;;;3.50;1.85;;;;;;;;;;5382186;26;20007;-57
2024/04/14 10:06:37;;;;;;;2.95;1.80;;;;;;;;;;5381824;26;19996;-59
2024/04/14 10:09:03;;;;;;;5.78;1.92;;;;;;;;;;5381977;26;20012;-58
2024/04/14 10:11:32;;;;;;;3.22;1.75;;;;;;;;;;5385153;26;20092;-58
2024/04/14 10:13:58;;;;;;;2.90;1.70;;;;;;;;;;5385355;26;20011;-59
2024/04/14 10:16:26;;;;;;;2.88;2.00;;;;;;;;;;5385386;26;20008;-59
2024/04/14 10:18:52;;;;;;;3.53;1.73;;;;;;;;;;5385435;26;20003;-60
2024/04/14 10:21:19;;;;;;;3.33;2.10;;;;;;;;;;5385056;26;20070;-59
2024/04/14 10:23:49;;;;;;;3.08;1.98;;;;;;;;;;5384975;26;19996;-60
2024/04/14 10:26:15;;;;;;;;;;;;;;;;;;5385313;26;20000;-59
2024/04/14 10:28:57;;;;;;;2.53;1.58;;;;;;;;;;5385018;26;19932;-58
2024/04/14 10:31:26;;;;;;;2.13;1.63;;;;;;;;;;5385585;26;20019;-60
2024/04/14 10:34:05;;;;;;;3.47;2.03;;;;;;;;;;5384905;26;20426;-59
2024/04/14 10:36:31;;;;;;;3.25;2.10;;;;;;;;;;5385233;26;20011;-59
2024/04/14 10:38:57;;;;;;;3.42;1.80;;;;;;;;;;5384635;26;20000;-58
2024/04/14 10:41:23;;;;;;;4.00;2.42;;;;;;;;;;5384851;26;20000;-59
2024/04/14 10:43:49;;;;;;;2.70;1.85;;;;;;;;;;5384884;26;19996;-60
2024/04/14 10:46:16;;;;;;;2.90;2.00;;;;;;;;;;5384570;26;20040;-58
2024/04/14 10:48:42;;;;;;;3.03;2.00;;;;;;;;;;5385274;26;20326;-57
2024/04/14 10:51:08;;;;;;;2.58;1.58;;;;;;;;;;5384956;26;20365;-58
2024/04/14 10:53:35;;;;;;;4.55;2.00;;;;;;;;;;5384670;26;20008;-57
2024/04/14 10:56:00;;;;;;;3.90;2.25;;;;;;;;;;5384938;26;20024;-57
2024/04/14 10:58:30;;;;;;;2.72;2.28;;;;;;;;;;5385127;26;19996;-58
2024/04/14 11:00:56;;;;;;;6.78;2.25;;;;;;;;;;5384520;26;19997;-58
2024/04/14 11:03:25;;;;;;;21.33;15.27;;;;;;;;;;5384446;26;20441;-59
2024/04/14 11:05:52;;;;;;;4.32;3.88;;;;;;;;;;5384667;26;20070;-58
2024/04/14 11:08:18;;;;;;;2.08;1.45;;;;;;;;;;5384305;26;20422;-60
2024/04/14 11:10:44;;;;;;;2.70;1.98;;;;;;;;;;5384426;26;20003;-60
2024/04/14 11:13:15;;;;;;;2.53;1.85;;;;;;;;;;5385126;26;20314;-59
2024/04/14 11:15:41;;;;;;;3.35;1.92;;;;;;;;;;5384700;26;20338;-58
2024/04/14 11:18:08;;;;;;;2.20;1.58;;;;;;;;;;5384657;26;19992;-58
2024/04/14 11:20:34;;;;;;;3.30;1.88;;;;;;;;;;5384575;26;20028;-58
2024/04/14 11:23:07;;;;;;;4.05;2.40;;;;;;;;;;5384400;26;19996;-58
2024/04/14 11:25:33;;;;;;;3.08;2.00;;;;;;;;;;5382741;26;20069;-59
2024/04/14 11:28:00;;;;;;;4.53;2.58;;;;;;;;;;5384179;26;20011;-58
2024/04/14 11:30:29;;;;;;;3.45;1.65;;;;;;;;;;5384546;26;20350;-58
2024/04/14 11:32:56;;;;;;;2.58;1.67;;;;;;;;;;5384447;26;20008;-59
2024/04/14 11:35:22;;;;;;;3.15;2.03;;;;;;;;;;5384195;26;20433;-58
2024/04/14 11:37:51;;;;;;;2.45;1.77;;;;;;;;;;5384068;26;19996;-58
2024/04/14 11:40:18;;;;;;;3.10;2.03;;;;;;;;;;5384478;26;20001;-59
2024/04/14 11:42:44;;;;;;;2.92;2.25;;;;;;;;;;5383898;26;19997;-59
2024/04/14 11:45:11;;;;;;;2.72;1.80;;;;;;;;;;5384062;26;20454;-58
2024/04/14 11:47:37;;;;;;;3.33;1.90;;;;;;;;;;5383862;26;20430;-59
2024/04/14 11:50:03;;;;;;;2.90;1.88;;;;;;;;;;5383919;26;20006;-57
2024/04/14 11:52:29;;;;;;;7.05;2.50;;;;;;;;;;5383928;26;19992;-59
2024/04/14 11:54:55;;;;;;;3.10;1.77;;;;;;;;;;5383932;26;20004;-60
2024/04/14 11:57:22;;;;;;;2.15;1.50;;;;;;;;;;5384091;26;20008;-58
2024/04/14 11:59:48;;;;;;;4.28;2.22;;;;;;;;;;5383946;26;20001;-60
2024/04/14 12:02:14;;;;;;;3.95;2.50;;;;;;;;;;5383641;26;20000;-59
2024/04/14 12:04:40;;;;;;;2.50;1.75;;;;;;;;;;5383918;26;20015;-60
2024/04/14 12:07:06;;;;;;;4.40;2.22;;;;;;;;;;5383884;26;20000;-58
2024/04/14 12:09:32;;;;;;;2.65;1.70;;;;;;;;;;5383705;26;19996;-58
2024/04/14 12:11:58;;;;;;;6.20;1.98;;;;;;;;;;5383813;26;20028;-58
2024/04/14 12:14:23;;;;;;;4.00;1.83;;;;;;;;;;5383724;26;20000;-58
2024/04/14 12:16:50;;;;;;;4.25;1.95;;;;;;;;;;5384012;26;20069;-58
2024/04/14 12:19:15;;;;;;;2.72;1.98;;;;;;;;;;5383962;26;20024;-58
2024/04/14 12:21:41;;;;;;;4.47;1.92;;;;;;;;;;5383610;26;20011;-59
2024/04/14 12:24:07;;;;;;;3.03;1.90;;;;;;;;;;5384298;26;20012;-59
2024/04/14 12:26:34;;;;;;;2.97;1.60;;;;;;;;;;5383822;26;20020;-59
2024/04/14 12:28:59;;;;;;;2.78;1.95;;;;;;;;;;5383432;26;20003;-60
2024/04/14 12:31:25;;;;;;;1.77;1.30;;;;;;;;;;5383553;26;20268;-59
2024/04/14 12:33:51;;;;;;;2.78;1.75;;;;;;;;;;5382813;26;19997;-59
2024/04/14 12:36:17;;;;;;;2.95;1.90;;;;;;;;;;5383384;26;20380;-59
2024/04/14 12:38:43;;;;;;;5.60;2.10;;;;;;;;;;5383183;26;19996;-59
2024/04/14 12:41:09;;;;;;;4.55;2.10;;;;;;;;;;5383551;26;20046;-59
2024/04/14 12:43:35;;;;;;;2.92;1.65;;;;;;;;;;5383476;26;20270;-59
2024/04/14 12:46:02;;;;;;;2.55;1.90;;;;;;;;;;5383610;26;19996;-59
2024/04/14 12:48:28;;;;;;;4.32;1.95;;;;;;;;;;5383674;26;20301;-59
2024/04/14 12:50:54;;;;;;;3.75;2.15;;;;;;;;;;5383506;26;20000;-59
2024/04/14 12:53:20;;;;;;;3.20;2.17;;;;;;;;;;5383247;26;20000;-57
2024/04/14 12:55:46;;;;;;;3.10;2.00;;;;;;;;;;5383160;26;20008;-59
2024/04/14 12:58:12;;;;;;;4.25;3.53;;;;;;;;;;5383069;26;20000;-58
2024/04/14 13:00:38;;;;;;;4.10;2.70;;;;;;;;;;5383378;26;20039;-59
2024/04/14 13:03:05;;;;;;;2.20;1.52;;;;;;;;;;5383666;26;20107;-58
2024/04/14 13:05:31;;;;;;;3.30;2.15;;;;;;;;;;5383087;26;20011;-60
2024/04/14 13:08:00;;;;;;;3.15;1.80;;;;;;;;;;5382788;26;20434;-60
2024/04/14 13:10:25;;;;;;;6.05;1.85;;;;;;;;;;5382796;26;20008;-58
2024/04/14 13:12:52;;;;;;;2.30;1.80;;;;;;;;;;5382631;26;20015;-61
2024/04/14 13:15:18;;;;;;;3.05;1.90;;;;;;;;;;5382840;26;19996;-58
2024/04/14 13:17:44;;;;;;;2.90;1.88;;;;;;;;;;5382335;26;20169;-58
2024/04/14 13:20:10;;;;;;;3.67;2.50;;;;;;;;;;5382421;26;20333;-58
2024/04/14 13:22:37;;;;;;;2.35;1.63;;;;;;;;;;5382347;26;19996;-59
2024/04/14 13:25:03;;;;;;;2.17;1.25;;;;;;;;;;5382344;26;20000;-59
2024/04/14 13:27:29;;;;;;;4.50;1.60;;;;;;;;;;5382262;26;20028;-58
2024/04/14 13:29:55;;;;;;;2.55;1.60;;;;;;;;;;5383398;26;20009;-59
2024/04/14 13:32:21;;;;;;;2.83;1.55;;;;;;;;;;5382269;26;20007;-59
2024/04/14 13:34:48;;;;;;;2.53;1.33;;;;;;;;;;5382281;26;20329;-59
2024/04/14 13:37:14;;;;;;;3.95;2.05;;;;;;;;;;5382912;26;20139;-59
2024/04/14 13:39:39;;;;;;;3.22;1.90;;;;;;;;;;5382058;26;19996;-59
2024/04/14 13:42:07;;;;;;;3.47;2.00;;;;;;;;;;5382193;26;20027;-58
2024/04/14 13:44:33;;;;;;;2.25;1.50;;;;;;;;;;5380433;26;20377;-58
2024/04/14 13:46:59;;;;;;;2.70;1.80;;;;;;;;;;5381813;26;20036;-58
2024/04/14 13:49:25;;;;;;;4.10;1.60;;;;;;;;;;5382096;26;20000;-58
2024/04/14 13:51:51;;;;;;;4.10;1.60;;;;;;;;;;5381680;26;20007;-58
2024/04/14 13:54:17;;;;;;;4.82;1.50;;;;;;;;;;5381853;26;19996;-58
2024/04/14 13:56:43;;;;;;;4.55;1.42;;;;;;;;;;5380583;26;20004;-59
2024/04/14 13:59:09;;;;;;;4.53;2.03;;;;;;;;;;5381731;26;20000;-57
2024/04/14 14:01:36;;;;;;;2.42;1.48;;;;;;;;;;5381810;26;19992;-59
2024/04/14 14:04:02;;;;;;;2.88;1.58;;;;;;;;;;5381936;26;20069;-59
2024/04/14 14:06:28;;;;;;;2.50;1.38;;;;;;;;;;5381832;26;20008;-59
2024/04/14 14:08:53;;;;;;;2.85;1.30;;;;;;;;;;5381618;26;20008;-59
2024/04/14 14:11:19;;;;;;;2.50;1.58;;;;;;;;;;5381495;26;20004;-59
2024/04/14 14:13:46;;;;;;;2.35;1.50;;;;;;;;;;5381544;26;20333;-59
2024/04/14 14:16:11;;;;;;;2.88;1.90;;;;;;;;;;5381548;26;19996;-60
2024/04/14 14:18:37;;;;;;;2.83;1.40;;;;;;;;;;5381628;26;20432;-59
2024/04/14 14:21:04;;;;;;;2.00;1.30;;;;;;;;;;5381427;26;20462;-59
2024/04/14 14:23:30;;;;;;;1.77;1.10;;;;;;;;;;5381299;26;19997;-59
2024/04/14 14:25:55;;;;;;;2.38;1.42;;;;;;;;;;5381493;26;20277;-58
2024/04/14 14:28:21;;;;;;;5.75;1.77;;;;;;;;;;5381896;26;20004;-58
2024/04/14 14:30:47;;;;;;;1.80;1.08;;;;;;;;;;5381330;26;20519;-58
2024/04/14 14:38:43;;;;;;;2.35;1.33;;;;;;;;;;5382264;26;20075;-59
2024/04/14 14:41:09;;;;;;;2.50;1.90;;;;;;;;;;5381123;26;19996;-59
2024/04/14 14:43:35;;;;;;;3.45;1.65;;;;;;;;;;5381175;26;19996;-59